sensor_id;sensor_type;location;lat;lon;timestamp;P1;durP1;ratioP1;P2;durP2;ratioP2
32505;SDS011;18955;51.224;8.482;2023-05-29T00:01:25;8.52;;;3.20;;
32505;SDS011;18955;51.224;8.482;2023-05-29T00:03:52;9.07;;;3.72;;
32505;SDS011;18955;51.224;8.482;2023-05-29T00:06:18;6.63;;;3.50;;
32505;SDS011;18955;51.224;8.482;2023-05-29T00:08:45;6.40;;;3.22;;
32505;SDS011;18955;51.224;8.482;2023-05-29T00:11:11;6.20;;;3.20;;
32505;SDS011;18955;51.224;8.482;2023-05-29T00:13:38;11.32;;;3.55;;
32505;SDS011;18955;51.224;8.482;2023-05-29T00:16:04;7.35;;;3.15;;
32505;SDS011;18955;51.224;8.482;2023-05-29T00:20:57;6.90;;;3.35;;
32505;SDS011;18955;51.224;8.482;2023-05-29T00:23:23;5.32;;;2.55;;
32505;SDS011;18955;51.224;8.482;2023-05-29T00:25:49;6.05;;;3.42;;
32505;SDS011;18955;51.224;8.482;2023-05-29T00:28:16;8.80;;;3.25;;
32505;SDS011;18955;51.224;8.482;2023-05-29T00:30:42;6.63;;;3.63;;
32505;SDS011;18955;51.224;8.482;2023-05-29T00:33:08;6.95;;;3.50;;
32505;SDS011;18955;51.224;8.482;2023-05-29T00:35:34;6.93;;;3.28;;
32505;SDS011;18955;51.224;8.482;2023-05-29T00:38:01;7.00;;;3.50;;
32505;SDS011;18955;51.224;8.482;2023-05-29T00:40:27;6.43;;;3.42;;
32505;SDS011;18955;51.224;8.482;2023-05-29T00:42:53;8.35;;;3.38;;
32505;SDS011;18955;51.224;8.482;2023-05-29T00:45:19;7.18;;;3.08;;
32505;SDS011;18955;51.224;8.482;2023-05-29T00:47:45;7.32;;;2.80;;
32505;SDS011;18955;51.224;8.482;2023-05-29T00:50:12;6.28;;;3.40;;
32505;SDS011;18955;51.224;8.482;2023-05-29T00:52:43;7.32;;;3.28;;
32505;SDS011;18955;51.224;8.482;2023-05-29T00:55:11;9.40;;;3.20;;
32505;SDS011;18955;51.224;8.482;2023-05-29T00:57:37;6.03;;;2.70;;
32505;SDS011;18955;51.224;8.482;2023-05-29T01:00:05;7.10;;;3.47;;
32505;SDS011;18955;51.224;8.482;2023-05-29T01:02:35;6.22;;;3.63;;
32505;SDS011;18955;51.224;8.482;2023-05-29T01:05:02;10.38;;;3.70;;
32505;SDS011;18955;51.224;8.482;2023-05-29T01:07:28;9.25;;;3.40;;
32505;SDS011;18955;51.224;8.482;2023-05-29T01:09:54;4.07;;;2.20;;
32505;SDS011;18955;51.224;8.482;2023-05-29T01:27:57;6.00;;;3.35;;
32505;SDS011;18955;51.224;8.482;2023-05-29T01:30:28;5.32;;;3.25;;
32505;SDS011;18955;51.224;8.482;2023-05-29T01:32:56;7.15;;;3.80;;
32505;SDS011;18955;51.224;8.482;2023-05-29T01:35:22;5.13;;;3.13;;
32505;SDS011;18955;51.224;8.482;2023-05-29T01:37:48;5.90;;;3.55;;
32505;SDS011;18955;51.224;8.482;2023-05-29T01:40:14;6.05;;;3.03;;
32505;SDS011;18955;51.224;8.482;2023-05-29T01:42:41;5.88;;;3.30;;
32505;SDS011;18955;51.224;8.482;2023-05-29T01:45:08;5.10;;;3.22;;
32505;SDS011;18955;51.224;8.482;2023-05-29T01:47:34;7.07;;;3.38;;
32505;SDS011;18955;51.224;8.482;2023-05-29T01:50:02;7.63;;;3.72;;
32505;SDS011;18955;51.224;8.482;2023-05-29T01:52:30;6.85;;;3.42;;
32505;SDS011;18955;51.224;8.482;2023-05-29T01:54:57;6.22;;;3.10;;
32505;SDS011;18955;51.224;8.482;2023-05-29T01:57:23;9.90;;;3.47;;
32505;SDS011;18955;51.224;8.482;2023-05-29T01:59:52;6.03;;;3.28;;
32505;SDS011;18955;51.224;8.482;2023-05-29T02:02:18;5.53;;;3.58;;
32505;SDS011;18955;51.224;8.482;2023-05-29T02:04:48;8.90;;;3.63;;
32505;SDS011;18955;51.224;8.482;2023-05-29T02:07:14;9.43;;;3.70;;
32505;SDS011;18955;51.224;8.482;2023-05-29T02:09:41;5.75;;;2.60;;
32505;SDS011;18955;51.224;8.482;2023-05-29T02:12:07;7.93;;;3.80;;
32505;SDS011;18955;51.224;8.482;2023-05-29T02:14:33;4.40;;;2.65;;
32505;SDS011;18955;51.224;8.482;2023-05-29T02:17:00;8.73;;;3.47;;
32505;SDS011;18955;51.224;8.482;2023-05-29T02:19:27;4.55;;;3.50;;
32505;SDS011;18955;51.224;8.482;2023-05-29T02:21:53;12.75;;;4.22;;
32505;SDS011;18955;51.224;8.482;2023-05-29T02:24:20;5.35;;;3.13;;
32505;SDS011;18955;51.224;8.482;2023-05-29T02:26:47;7.82;;;3.65;;
32505;SDS011;18955;51.224;8.482;2023-05-29T02:29:15;8.57;;;3.80;;
32505;SDS011;18955;51.224;8.482;2023-05-29T02:31:42;6.15;;;3.85;;
32505;SDS011;18955;51.224;8.482;2023-05-29T02:34:08;6.45;;;2.90;;
32505;SDS011;18955;51.224;8.482;2023-05-29T02:36:34;6.53;;;3.60;;
32505;SDS011;18955;51.224;8.482;2023-05-29T02:39:03;10.38;;;3.42;;
32505;SDS011;18955;51.224;8.482;2023-05-29T02:41:31;7.57;;;3.22;;
32505;SDS011;18955;51.224;8.482;2023-05-29T02:43:57;7.68;;;4.10;;
32505;SDS011;18955;51.224;8.482;2023-05-29T02:46:24;9.43;;;4.25;;
32505;SDS011;18955;51.224;8.482;2023-05-29T02:48:50;8.82;;;4.03;;
32505;SDS011;18955;51.224;8.482;2023-05-29T02:51:16;9.95;;;4.03;;
32505;SDS011;18955;51.224;8.482;2023-05-29T02:53:42;7.82;;;3.78;;
32505;SDS011;18955;51.224;8.482;2023-05-29T02:56:08;7.78;;;4.35;;
32505;SDS011;18955;51.224;8.482;2023-05-29T02:58:35;18.27;;;4.07;;
32505;SDS011;18955;51.224;8.482;2023-05-29T03:01:01;13.55;;;5.40;;
32505;SDS011;18955;51.224;8.482;2023-05-29T03:03:28;7.70;;;4.43;;
32505;SDS011;18955;51.224;8.482;2023-05-29T03:05:54;7.18;;;4.30;;
32505;SDS011;18955;51.224;8.482;2023-05-29T03:08:20;13.18;;;4.68;;
32505;SDS011;18955;51.224;8.482;2023-05-29T03:10:47;17.10;;;5.05;;
32505;SDS011;18955;51.224;8.482;2023-05-29T03:13:14;9.25;;;4.60;;
32505;SDS011;18955;51.224;8.482;2023-05-29T03:15:50;10.43;;;5.30;;
32505;SDS011;18955;51.224;8.482;2023-05-29T03:18:17;9.32;;;5.05;;
32505;SDS011;18955;51.224;8.482;2023-05-29T03:20:43;12.18;;;5.30;;
32505;SDS011;18955;51.224;8.482;2023-05-29T03:23:09;11.55;;;5.35;;
32505;SDS011;18955;51.224;8.482;2023-05-29T03:25:36;15.02;;;5.70;;
32505;SDS011;18955;51.224;8.482;2023-05-29T03:28:02;11.20;;;5.22;;
32505;SDS011;18955;51.224;8.482;2023-05-29T03:30:29;12.27;;;6.85;;
32505;SDS011;18955;51.224;8.482;2023-05-29T03:32:55;14.30;;;6.20;;
32505;SDS011;18955;51.224;8.482;2023-05-29T03:35:33;13.05;;;6.43;;
32505;SDS011;18955;51.224;8.482;2023-05-29T03:38:00;13.55;;;6.82;;
32505;SDS011;18955;51.224;8.482;2023-05-29T03:40:26;8.82;;;5.75;;
32505;SDS011;18955;51.224;8.482;2023-05-29T03:42:52;12.38;;;4.53;;
32505;SDS011;18955;51.224;8.482;2023-05-29T03:45:18;7.35;;;5.03;;
32505;SDS011;18955;51.224;8.482;2023-05-29T03:47:45;10.70;;;6.43;;
32505;SDS011;18955;51.224;8.482;2023-05-29T03:50:12;12.82;;;7.10;;
32505;SDS011;18955;51.224;8.482;2023-05-29T03:52:42;11.13;;;6.47;;
32505;SDS011;18955;51.224;8.482;2023-05-29T03:55:08;15.15;;;7.07;;
32505;SDS011;18955;51.224;8.482;2023-05-29T03:57:41;12.85;;;6.88;;
32505;SDS011;18955;51.224;8.482;2023-05-29T04:02:38;14.63;;;7.28;;
32505;SDS011;18955;51.224;8.482;2023-05-29T04:05:05;11.88;;;6.72;;
32505;SDS011;18955;51.224;8.482;2023-05-29T04:10:07;12.98;;;6.82;;
32505;SDS011;18955;51.224;8.482;2023-05-29T04:12:34;16.52;;;7.15;;
32505;SDS011;18955;51.224;8.482;2023-05-29T04:15:00;14.32;;;7.00;;
32505;SDS011;18955;51.224;8.482;2023-05-29T04:17:27;15.27;;;7.82;;
32505;SDS011;18955;51.224;8.482;2023-05-29T04:19:54;16.67;;;7.45;;
32505;SDS011;18955;51.224;8.482;2023-05-29T04:22:21;18.00;;;8.07;;
32505;SDS011;18955;51.224;8.482;2023-05-29T04:24:47;13.60;;;7.80;;
32505;SDS011;18955;51.224;8.482;2023-05-29T04:27:14;12.63;;;7.30;;
32505;SDS011;18955;51.224;8.482;2023-05-29T04:29:43;16.75;;;8.77;;
32505;SDS011;18955;51.224;8.482;2023-05-29T04:32:09;16.25;;;7.07;;
32505;SDS011;18955;51.224;8.482;2023-05-29T04:34:38;15.23;;;7.53;;
32505;SDS011;18955;51.224;8.482;2023-05-29T04:37:05;13.32;;;7.72;;
32505;SDS011;18955;51.224;8.482;2023-05-29T04:39:32;12.77;;;7.60;;
32505;SDS011;18955;51.224;8.482;2023-05-29T04:41:59;12.27;;;7.75;;
32505;SDS011;18955;51.224;8.482;2023-05-29T04:44:26;12.73;;;8.18;;
32505;SDS011;18955;51.224;8.482;2023-05-29T04:46:54;14.98;;;8.95;;
32505;SDS011;18955;51.224;8.482;2023-05-29T04:49:22;13.68;;;8.60;;
32505;SDS011;18955;51.224;8.482;2023-05-29T04:51:49;15.32;;;8.60;;
32505;SDS011;18955;51.224;8.482;2023-05-29T04:54:18;15.73;;;8.20;;
32505;SDS011;18955;51.224;8.482;2023-05-29T04:56:46;22.13;;;9.45;;
32505;SDS011;18955;51.224;8.482;2023-05-29T04:59:13;12.60;;;7.97;;
32505;SDS011;18955;51.224;8.482;2023-05-29T05:01:40;15.38;;;8.40;;
32505;SDS011;18955;51.224;8.482;2023-05-29T05:04:09;15.82;;;9.15;;
32505;SDS011;18955;51.224;8.482;2023-05-29T05:09:03;18.58;;;10.40;;
32505;SDS011;18955;51.224;8.482;2023-05-29T05:11:30;16.70;;;10.07;;
32505;SDS011;18955;51.224;8.482;2023-05-29T05:13:56;14.02;;;9.10;;
32505;SDS011;18955;51.224;8.482;2023-05-29T05:16:22;23.15;;;11.68;;
32505;SDS011;18955;51.224;8.482;2023-05-29T05:18:49;17.55;;;10.68;;
32505;SDS011;18955;51.224;8.482;2023-05-29T05:21:16;14.15;;;9.05;;
32505;SDS011;18955;51.224;8.482;2023-05-29T05:23:42;17.85;;;10.68;;
32505;SDS011;18955;51.224;8.482;2023-05-29T05:26:10;17.88;;;9.82;;
32505;SDS011;18955;51.224;8.482;2023-05-29T05:28:36;14.13;;;9.45;;
32505;SDS011;18955;51.224;8.482;2023-05-29T05:31:04;15.65;;;10.32;;
32505;SDS011;18955;51.224;8.482;2023-05-29T05:33:31;17.05;;;9.68;;
32505;SDS011;18955;51.224;8.482;2023-05-29T05:35:58;15.55;;;7.57;;
32505;SDS011;18955;51.224;8.482;2023-05-29T05:38:25;10.02;;;7.63;;
32505;SDS011;18955;51.224;8.482;2023-05-29T05:40:51;20.45;;;10.73;;
32505;SDS011;18955;51.224;8.482;2023-05-29T05:43:24;17.27;;;10.90;;
32505;SDS011;18955;51.224;8.482;2023-05-29T05:46:03;14.10;;;9.05;;
32505;SDS011;18955;51.224;8.482;2023-05-29T05:48:34;15.55;;;9.23;;
32505;SDS011;18955;51.224;8.482;2023-05-29T05:51:00;16.38;;;8.85;;
32505;SDS011;18955;51.224;8.482;2023-05-29T05:53:26;14.48;;;10.10;;
32505;SDS011;18955;51.224;8.482;2023-05-29T05:55:52;14.65;;;9.88;;
32505;SDS011;18955;51.224;8.482;2023-05-29T06:00:46;16.63;;;10.43;;
32505;SDS011;18955;51.224;8.482;2023-05-29T06:03:12;17.23;;;9.43;;
32505;SDS011;18955;51.224;8.482;2023-05-29T06:05:53;20.25;;;10.43;;
32505;SDS011;18955;51.224;8.482;2023-05-29T06:08:20;15.15;;;10.30;;
32505;SDS011;18955;51.224;8.482;2023-05-29T06:10:46;17.00;;;8.90;;
32505;SDS011;18955;51.224;8.482;2023-05-29T06:13:12;18.30;;;10.13;;
32505;SDS011;18955;51.224;8.482;2023-05-29T06:15:49;15.07;;;8.90;;
32505;SDS011;18955;51.224;8.482;2023-05-29T06:18:15;11.93;;;7.22;;
32505;SDS011;18955;51.224;8.482;2023-05-29T06:20:42;15.88;;;8.40;;
32505;SDS011;18955;51.224;8.482;2023-05-29T06:23:08;13.25;;;9.07;;
32505;SDS011;18955;51.224;8.482;2023-05-29T06:25:37;15.68;;;9.10;;
32505;SDS011;18955;51.224;8.482;2023-05-29T06:28:05;17.95;;;9.10;;
32505;SDS011;18955;51.224;8.482;2023-05-29T06:30:34;21.95;;;10.70;;
32505;SDS011;18955;51.224;8.482;2023-05-29T06:33:05;18.90;;;10.27;;
32505;SDS011;18955;51.224;8.482;2023-05-29T06:35:31;18.20;;;9.43;;
32505;SDS011;18955;51.224;8.482;2023-05-29T06:37:58;15.45;;;9.15;;
32505;SDS011;18955;51.224;8.482;2023-05-29T06:40:25;15.65;;;9.18;;
32505;SDS011;18955;51.224;8.482;2023-05-29T06:42:51;16.55;;;8.98;;
32505;SDS011;18955;51.224;8.482;2023-05-29T06:45:20;15.82;;;9.85;;
32505;SDS011;18955;51.224;8.482;2023-05-29T06:47:46;14.05;;;7.93;;
32505;SDS011;18955;51.224;8.482;2023-05-29T06:50:13;14.80;;;8.40;;
32505;SDS011;18955;51.224;8.482;2023-05-29T06:52:40;16.45;;;9.32;;
32505;SDS011;18955;51.224;8.482;2023-05-29T06:55:41;14.77;;;8.20;;
32505;SDS011;18955;51.224;8.482;2023-05-29T06:58:08;14.10;;;9.32;;
32505;SDS011;18955;51.224;8.482;2023-05-29T07:00:34;17.17;;;8.88;;
32505;SDS011;18955;51.224;8.482;2023-05-29T07:03:20;18.65;;;8.70;;
32505;SDS011;18955;51.224;8.482;2023-05-29T07:08:13;12.95;;;7.15;;
32505;SDS011;18955;51.224;8.482;2023-05-29T07:10:40;15.57;;;8.73;;
32505;SDS011;18955;51.224;8.482;2023-05-29T07:13:06;15.73;;;7.57;;
32505;SDS011;18955;51.224;8.482;2023-05-29T07:15:33;17.77;;;8.88;;
32505;SDS011;18955;51.224;8.482;2023-05-29T07:17:59;10.35;;;5.55;;
32505;SDS011;18955;51.224;8.482;2023-05-29T07:20:27;11.10;;;7.13;;
32505;SDS011;18955;51.224;8.482;2023-05-29T07:22:54;17.48;;;8.07;;
32505;SDS011;18955;51.224;8.482;2023-05-29T07:27:47;14.52;;;8.07;;
32505;SDS011;18955;51.224;8.482;2023-05-29T07:30:13;17.85;;;7.10;;
32505;SDS011;18955;51.224;8.482;2023-05-29T07:32:43;12.88;;;6.90;;
32505;SDS011;18955;51.224;8.482;2023-05-29T07:37:36;17.83;;;7.15;;
32505;SDS011;18955;51.224;8.482;2023-05-29T07:40:03;13.90;;;7.47;;
32505;SDS011;18955;51.224;8.482;2023-05-29T07:42:52;19.85;;;7.38;;
32505;SDS011;18955;51.224;8.482;2023-05-29T07:45:20;13.18;;;6.47;;
32505;SDS011;18955;51.224;8.482;2023-05-29T07:47:46;12.95;;;6.07;;
32505;SDS011;18955;51.224;8.482;2023-05-29T07:50:14;14.48;;;6.90;;
32505;SDS011;18955;51.224;8.482;2023-05-29T07:52:42;18.70;;;7.13;;
32505;SDS011;18955;51.224;8.482;2023-05-29T07:55:09;13.80;;;6.68;;
32505;SDS011;18955;51.224;8.482;2023-05-29T07:57:37;16.55;;;6.63;;
32505;SDS011;18955;51.224;8.482;2023-05-29T08:00:05;12.07;;;5.50;;
32505;SDS011;18955;51.224;8.482;2023-05-29T08:02:35;15.70;;;6.03;;
32505;SDS011;18955;51.224;8.482;2023-05-29T08:05:26;12.93;;;6.25;;
32505;SDS011;18955;51.224;8.482;2023-05-29T08:10:19;17.67;;;6.05;;
32505;SDS011;18955;51.224;8.482;2023-05-29T08:12:46;13.48;;;5.43;;
32505;SDS011;18955;51.224;8.482;2023-05-29T08:15:12;13.05;;;5.57;;
32505;SDS011;18955;51.224;8.482;2023-05-29T08:17:39;11.52;;;5.43;;
32505;SDS011;18955;51.224;8.482;2023-05-29T08:20:05;12.65;;;5.65;;
32505;SDS011;18955;51.224;8.482;2023-05-29T08:22:32;17.52;;;5.72;;
32505;SDS011;18955;51.224;8.482;2023-05-29T08:24:59;16.23;;;5.45;;
32505;SDS011;18955;51.224;8.482;2023-05-29T08:27:26;16.92;;;5.68;;
32505;SDS011;18955;51.224;8.482;2023-05-29T08:29:53;10.70;;;5.10;;
32505;SDS011;18955;51.224;8.482;2023-05-29T08:32:20;13.15;;;5.65;;
32505;SDS011;18955;51.224;8.482;2023-05-29T08:37:13;15.35;;;5.38;;
32505;SDS011;18955;51.224;8.482;2023-05-29T08:39:39;14.60;;;5.43;;
32505;SDS011;18955;51.224;8.482;2023-05-29T08:42:20;11.77;;;5.63;;
32505;SDS011;18955;51.224;8.482;2023-05-29T08:44:51;17.42;;;5.32;;
32505;SDS011;18955;51.224;8.482;2023-05-29T08:47:23;10.60;;;4.85;;
32505;SDS011;18955;51.224;8.482;2023-05-29T08:49:53;15.18;;;4.90;;
32505;SDS011;18955;51.224;8.482;2023-05-29T08:52:21;15.23;;;5.35;;
32505;SDS011;18955;51.224;8.482;2023-05-29T08:54:51;13.60;;;5.40;;
32505;SDS011;18955;51.224;8.482;2023-05-29T08:57:18;18.92;;;5.72;;
32505;SDS011;18955;51.224;8.482;2023-05-29T08:59:46;11.85;;;4.35;;
32505;SDS011;18955;51.224;8.482;2023-05-29T09:02:15;15.18;;;5.00;;
32505;SDS011;18955;51.224;8.482;2023-05-29T09:04:41;11.70;;;4.57;;
32505;SDS011;18955;51.224;8.482;2023-05-29T09:07:16;10.60;;;4.88;;
32505;SDS011;18955;51.224;8.482;2023-05-29T09:09:44;13.85;;;5.70;;
32505;SDS011;18955;51.224;8.482;2023-05-29T09:12:14;14.80;;;5.10;;
32505;SDS011;18955;51.224;8.482;2023-05-29T09:14:42;15.35;;;5.65;;
32505;SDS011;18955;51.224;8.482;2023-05-29T09:17:10;17.55;;;5.55;;
32505;SDS011;18955;51.224;8.482;2023-05-29T09:19:38;17.10;;;4.93;;
32505;SDS011;18955;51.224;8.482;2023-05-29T09:22:07;15.88;;;5.78;;
32505;SDS011;18955;51.224;8.482;2023-05-29T09:24:40;12.30;;;4.95;;
32505;SDS011;18955;51.224;8.482;2023-05-29T09:27:08;12.48;;;4.47;;
32505;SDS011;18955;51.224;8.482;2023-05-29T09:29:37;12.65;;;4.70;;
32505;SDS011;18955;51.224;8.482;2023-05-29T09:34:40;18.95;;;5.35;;
32505;SDS011;18955;51.224;8.482;2023-05-29T09:37:08;20.60;;;4.80;;
32505;SDS011;18955;51.224;8.482;2023-05-29T09:42:15;15.48;;;4.80;;
32505;SDS011;18955;51.224;8.482;2023-05-29T09:44:42;12.00;;;4.75;;
32505;SDS011;18955;51.224;8.482;2023-05-29T09:47:18;12.90;;;4.65;;
32505;SDS011;18955;51.224;8.482;2023-05-29T09:49:45;13.25;;;4.70;;
32505;SDS011;18955;51.224;8.482;2023-05-29T09:52:15;17.20;;;4.70;;
32505;SDS011;18955;51.224;8.482;2023-05-29T09:54:47;17.05;;;4.93;;
32505;SDS011;18955;51.224;8.482;2023-05-29T09:59:45;12.43;;;4.60;;
32505;SDS011;18955;51.224;8.482;2023-05-29T10:02:17;12.20;;;4.53;;
32505;SDS011;18955;51.224;8.482;2023-05-29T10:04:44;11.90;;;4.53;;
32505;SDS011;18955;51.224;8.482;2023-05-29T10:09:58;15.80;;;4.77;;
32505;SDS011;18955;51.224;8.482;2023-05-29T10:12:27;21.60;;;5.15;;
32505;SDS011;18955;51.224;8.482;2023-05-29T10:14:57;14.90;;;5.30;;
32505;SDS011;18955;51.224;8.482;2023-05-29T10:17:26;13.60;;;5.03;;
32505;SDS011;18955;51.224;8.482;2023-05-29T10:19:57;14.38;;;4.82;;
32505;SDS011;18955;51.224;8.482;2023-05-29T10:22:27;16.55;;;5.15;;
32505;SDS011;18955;51.224;8.482;2023-05-29T10:24:54;10.32;;;4.00;;
32505;SDS011;18955;51.224;8.482;2023-05-29T10:27:23;16.38;;;4.90;;
32505;SDS011;18955;51.224;8.482;2023-05-29T10:30:14;13.73;;;5.38;;
32505;SDS011;18955;51.224;8.482;2023-05-29T10:33:35;16.67;;;5.50;;
32505;SDS011;18955;51.224;8.482;2023-05-29T10:35:48;17.13;;;4.88;;
32505;SDS011;18955;51.224;8.482;2023-05-29T10:38:23;16.73;;;5.03;;
32505;SDS011;18955;51.224;8.482;2023-05-29T10:40:52;17.10;;;5.13;;
32505;SDS011;18955;51.224;8.482;2023-05-29T10:46:00;15.38;;;5.07;;
32505;SDS011;18955;51.224;8.482;2023-05-29T10:51:05;16.17;;;5.43;;
32505;SDS011;18955;51.224;8.482;2023-05-29T10:53:32;11.25;;;5.28;;
32505;SDS011;18955;51.224;8.482;2023-05-29T10:58:27;16.07;;;4.93;;
32505;SDS011;18955;51.224;8.482;2023-05-29T11:03:21;17.83;;;4.78;;
32505;SDS011;18955;51.224;8.482;2023-05-29T11:05:56;14.80;;;4.50;;
32505;SDS011;18955;51.224;8.482;2023-05-29T11:08:28;13.13;;;4.43;;
32505;SDS011;18955;51.224;8.482;2023-05-29T11:11:02;16.92;;;4.75;;
32505;SDS011;18955;51.224;8.482;2023-05-29T11:13:33;14.15;;;5.00;;
32505;SDS011;18955;51.224;8.482;2023-05-29T11:16:43;12.48;;;4.35;;
32505;SDS011;18955;51.224;8.482;2023-05-29T11:18:51;10.68;;;4.25;;
32505;SDS011;18955;51.224;8.482;2023-05-29T11:24:06;13.68;;;4.50;;
32505;SDS011;18955;51.224;8.482;2023-05-29T11:26:33;17.25;;;5.15;;
32505;SDS011;18955;51.224;8.482;2023-05-29T11:29:00;14.60;;;4.68;;
32505;SDS011;18955;51.224;8.482;2023-05-29T11:31:32;20.70;;;5.18;;
32505;SDS011;18955;51.224;8.482;2023-05-29T11:34:00;12.70;;;4.43;;
32505;SDS011;18955;51.224;8.482;2023-05-29T11:36:30;16.33;;;4.32;;
32505;SDS011;18955;51.224;8.482;2023-05-29T11:38:58;16.20;;;4.40;;
32505;SDS011;18955;51.224;8.482;2023-05-29T11:41:26;14.40;;;4.30;;
32505;SDS011;18955;51.224;8.482;2023-05-29T11:46:22;15.13;;;4.90;;
32505;SDS011;18955;51.224;8.482;2023-05-29T11:48:51;16.98;;;4.60;;
32505;SDS011;18955;51.224;8.482;2023-05-29T11:51:18;13.65;;;5.10;;
32505;SDS011;18955;51.224;8.482;2023-05-29T11:53:46;16.00;;;4.75;;
32505;SDS011;18955;51.224;8.482;2023-05-29T11:56:13;14.05;;;4.28;;
32505;SDS011;18955;51.224;8.482;2023-05-29T11:58:39;14.50;;;4.65;;
32505;SDS011;18955;51.224;8.482;2023-05-29T12:01:07;20.55;;;5.57;;
32505;SDS011;18955;51.224;8.482;2023-05-29T12:03:40;12.30;;;4.40;;
32505;SDS011;18955;51.224;8.482;2023-05-29T12:06:08;13.00;;;3.88;;
32505;SDS011;18955;51.224;8.482;2023-05-29T12:08:36;17.63;;;4.50;;
32505;SDS011;18955;51.224;8.482;2023-05-29T12:11:03;17.55;;;4.18;;
32505;SDS011;18955;51.224;8.482;2023-05-29T12:15:57;13.05;;;5.00;;
32505;SDS011;18955;51.224;8.482;2023-05-29T12:18:25;17.00;;;5.00;;
32505;SDS011;18955;51.224;8.482;2023-05-29T12:20:59;15.50;;;3.78;;
32505;SDS011;18955;51.224;8.482;2023-05-29T12:25:56;14.98;;;3.95;;
32505;SDS011;18955;51.224;8.482;2023-05-29T12:28:25;12.82;;;4.35;;
32505;SDS011;18955;51.224;8.482;2023-05-29T12:30:57;10.52;;;3.95;;
32505;SDS011;18955;51.224;8.482;2023-05-29T12:33:25;15.18;;;4.03;;
32505;SDS011;18955;51.224;8.482;2023-05-29T12:35:53;13.98;;;4.32;;
32505;SDS011;18955;51.224;8.482;2023-05-29T12:38:19;13.88;;;4.50;;
32505;SDS011;18955;51.224;8.482;2023-05-29T12:40:48;13.93;;;4.65;;
32505;SDS011;18955;51.224;8.482;2023-05-29T12:43:15;16.05;;;4.40;;
32505;SDS011;18955;51.224;8.482;2023-05-29T12:45:42;20.27;;;5.03;;
32505;SDS011;18955;51.224;8.482;2023-05-29T12:48:08;17.83;;;5.00;;
32505;SDS011;18955;51.224;8.482;2023-05-29T12:50:39;18.02;;;4.68;;
32505;SDS011;18955;51.224;8.482;2023-05-29T12:53:09;13.80;;;4.43;;
32505;SDS011;18955;51.224;8.482;2023-05-29T12:55:38;18.13;;;4.53;;
32505;SDS011;18955;51.224;8.482;2023-05-29T12:58:06;11.35;;;3.88;;
32505;SDS011;18955;51.224;8.482;2023-05-29T13:00:40;16.52;;;4.18;;
32505;SDS011;18955;51.224;8.482;2023-05-29T13:03:08;15.23;;;3.58;;
32505;SDS011;18955;51.224;8.482;2023-05-29T13:05:34;15.20;;;4.55;;
32505;SDS011;18955;51.224;8.482;2023-05-29T13:08:00;16.83;;;4.30;;
32505;SDS011;18955;51.224;8.482;2023-05-29T13:10:27;12.93;;;4.38;;
32505;SDS011;18955;51.224;8.482;2023-05-29T13:12:54;16.83;;;4.05;;
32505;SDS011;18955;51.224;8.482;2023-05-29T13:15:24;15.63;;;4.28;;
32505;SDS011;18955;51.224;8.482;2023-05-29T13:17:52;15.23;;;4.22;;
32505;SDS011;18955;51.224;8.482;2023-05-29T13:20:18;19.05;;;4.63;;
32505;SDS011;18955;51.224;8.482;2023-05-29T13:22:46;18.35;;;4.32;;
32505;SDS011;18955;51.224;8.482;2023-05-29T13:25:13;16.40;;;4.65;;
32505;SDS011;18955;51.224;8.482;2023-05-29T13:27:42;14.15;;;4.88;;
32505;SDS011;18955;51.224;8.482;2023-05-29T13:30:10;13.40;;;4.57;;
32505;SDS011;18955;51.224;8.482;2023-05-29T13:32:37;19.60;;;4.00;;
32505;SDS011;18955;51.224;8.482;2023-05-29T13:35:03;16.58;;;4.13;;
32505;SDS011;18955;51.224;8.482;2023-05-29T13:37:31;16.77;;;4.50;;
32505;SDS011;18955;51.224;8.482;2023-05-29T13:39:57;16.17;;;4.75;;
32505;SDS011;18955;51.224;8.482;2023-05-29T13:42:23;16.50;;;4.25;;
32505;SDS011;18955;51.224;8.482;2023-05-29T13:44:50;14.43;;;4.38;;
32505;SDS011;18955;51.224;8.482;2023-05-29T13:47:16;14.43;;;4.70;;
32505;SDS011;18955;51.224;8.482;2023-05-29T13:49:43;15.90;;;4.88;;
32505;SDS011;18955;51.224;8.482;2023-05-29T13:52:09;11.07;;;3.85;;
32505;SDS011;18955;51.224;8.482;2023-05-29T13:54:35;10.48;;;3.05;;
32505;SDS011;18955;51.224;8.482;2023-05-29T13:57:02;13.60;;;4.35;;
32505;SDS011;18955;51.224;8.482;2023-05-29T13:59:32;12.10;;;3.78;;
32505;SDS011;18955;51.224;8.482;2023-05-29T14:01:59;15.18;;;4.15;;
32505;SDS011;18955;51.224;8.482;2023-05-29T14:04:26;16.60;;;4.53;;
32505;SDS011;18955;51.224;8.482;2023-05-29T14:06:54;15.13;;;4.43;;
32505;SDS011;18955;51.224;8.482;2023-05-29T14:09:22;16.42;;;4.07;;
32505;SDS011;18955;51.224;8.482;2023-05-29T14:11:57;13.10;;;3.80;;
32505;SDS011;18955;51.224;8.482;2023-05-29T14:14:25;14.68;;;3.97;;
32505;SDS011;18955;51.224;8.482;2023-05-29T14:16:52;13.98;;;4.00;;
32505;SDS011;18955;51.224;8.482;2023-05-29T14:19:18;13.50;;;3.92;;
32505;SDS011;18955;51.224;8.482;2023-05-29T14:21:45;14.63;;;4.13;;
32505;SDS011;18955;51.224;8.482;2023-05-29T14:24:11;13.73;;;3.75;;
32505;SDS011;18955;51.224;8.482;2023-05-29T14:26:38;14.15;;;4.35;;
32505;SDS011;18955;51.224;8.482;2023-05-29T14:29:05;13.55;;;3.35;;
32505;SDS011;18955;51.224;8.482;2023-05-29T14:31:31;11.15;;;4.60;;
32505;SDS011;18955;51.224;8.482;2023-05-29T14:33:58;12.13;;;3.92;;
32505;SDS011;18955;51.224;8.482;2023-05-29T14:36:24;10.77;;;3.28;;
32505;SDS011;18955;51.224;8.482;2023-05-29T14:38:50;9.73;;;2.97;;
32505;SDS011;18955;51.224;8.482;2023-05-29T14:41:16;9.45;;;3.17;;
32505;SDS011;18955;51.224;8.482;2023-05-29T14:43:43;17.95;;;4.70;;
32505;SDS011;18955;51.224;8.482;2023-05-29T14:46:09;7.93;;;2.72;;
32505;SDS011;18955;51.224;8.482;2023-05-29T14:48:35;16.40;;;4.15;;
32505;SDS011;18955;51.224;8.482;2023-05-29T14:51:01;9.10;;;3.83;;
32505;SDS011;18955;51.224;8.482;2023-05-29T14:53:28;24.92;;;3.90;;
32505;SDS011;18955;51.224;8.482;2023-05-29T14:55:57;15.35;;;4.25;;
32505;SDS011;18955;51.224;8.482;2023-05-29T14:58:23;9.48;;;3.72;;
32505;SDS011;18955;51.224;8.482;2023-05-29T15:00:49;13.60;;;3.50;;
32505;SDS011;18955;51.224;8.482;2023-05-29T15:03:15;14.02;;;4.38;;
32505;SDS011;18955;51.224;8.482;2023-05-29T15:05:42;10.10;;;3.60;;
32505;SDS011;18955;51.224;8.482;2023-05-29T15:08:08;15.65;;;2.78;;
32505;SDS011;18955;51.224;8.482;2023-05-29T15:10:34;11.95;;;3.40;;
32505;SDS011;18955;51.224;8.482;2023-05-29T15:13:01;12.68;;;3.47;;
32505;SDS011;18955;51.224;8.482;2023-05-29T15:15:29;8.95;;;2.97;;
32505;SDS011;18955;51.224;8.482;2023-05-29T15:17:56;9.88;;;2.92;;
32505;SDS011;18955;51.224;8.482;2023-05-29T15:20:22;7.75;;;2.78;;
32505;SDS011;18955;51.224;8.482;2023-05-29T15:22:50;11.00;;;3.75;;
32505;SDS011;18955;51.224;8.482;2023-05-29T15:25:17;12.20;;;3.30;;
32505;SDS011;18955;51.224;8.482;2023-05-29T15:27:44;9.95;;;3.35;;
32505;SDS011;18955;51.224;8.482;2023-05-29T15:32:40;14.80;;;3.47;;
32505;SDS011;18955;51.224;8.482;2023-05-29T15:35:08;12.70;;;3.67;;
32505;SDS011;18955;51.224;8.482;2023-05-29T15:37:35;9.52;;;3.17;;
32505;SDS011;18955;51.224;8.482;2023-05-29T15:40:02;8.98;;;3.05;;
32505;SDS011;18955;51.224;8.482;2023-05-29T15:44:55;9.05;;;3.85;;
32505;SDS011;18955;51.224;8.482;2023-05-29T15:47:21;14.65;;;3.78;;
32505;SDS011;18955;51.224;8.482;2023-05-29T15:49:48;12.07;;;3.15;;
32505;SDS011;18955;51.224;8.482;2023-05-29T15:52:14;12.38;;;3.45;;
32505;SDS011;18955;51.224;8.482;2023-05-29T15:54:40;10.38;;;3.33;;
32505;SDS011;18955;51.224;8.482;2023-05-29T15:57:07;14.07;;;3.30;;